Ambulong, Philippines

10:26 PM PHT on October 30, 2014 (GMT +0800)
Rizal Municipal Hall | Change Station
CLOSE
Current Station
Personal Weather Station
Location: Rizal, CALABARZON
Elevation: 812 ft
Nearby Weather Stations

Elev 812 ft 14.11 °N, 121.39 °E | Updated 1 minute ago

Mostly Cloudy
Mostly Cloudy
74.5 °F
Feels Like 72 °F
N
0.0
Wind Variable Wind from NNW
Gusts 0.0 mph

Today
High -- | Low -- °F
--% Chance of Precip.
Yesterday
High -- | Low -- °F
Precip. -- in
5:49 AM 5:28 PM
Waxing Crescent, 44% visible
Pressure 29.86 in
Visibility 6.2 miles
Clouds Few 2500 ft
Scattered Clouds 10000 ft
Mostly Cloudy 30000 ft
Heat Index 72 °F
Dew Point 73 °F
Humidity 95%
Rainfall 0.00 in
Snow Depth Not available.
UV 0 out of 12
Pollen Not available.
Air Quality Not available.
Flu Activity Not available.
METAR RPLL 301400Z VRB01KT 9999 FEW025 SCT100 BKN300 27/22 Q1011 NOSIG RMK A2985

More Conditions Fewer Conditions

Pressure 29.86 in
Visibility 6.2 miles
Clouds Few 2500 ft
Scattered Clouds 10000 ft
Mostly Cloudy 30000 ft
Heat Index 72 °F
Dew Point 73 °F
Humidity 95%
Rainfall 0.00 in
Snow Depth Not available.
UV 0 out of 12
Pollen Not available.
Air Quality Not available.
Flu Activity Not available.
METAR RPLL 301400Z VRB01KT 9999 FEW025 SCT100 BKN300 27/22 Q1011 NOSIG RMK A2985

More Conditions Fewer Conditions

10-Day Weather Forecast

Almanac

Astronomy

Oct. 30, 2014 Rise Set
Actual Time
Civil Twilight
Nautical Twilight
Astronomical Twilight
Moon
Length of Visible Light
Length of Day
Tomorrow will be .
, % of the Moon is Illuminated

Today's Extremes

Country Highs Country Lows

Community

WunderPhotos

Upload Photos

1,766,371 photos uploaded!

WunderBlogs® & News

Nearby

Air Quality

  Air Quality AQ Index Pollutant
Not available.

Snow Depth

Station Depth Elevation

Earthquake Activity

City Distance Mag. Time & Date
Minimum magnitude displayed is 2.5.

Coastal Water Temperatures

Place Temperature

Nearby Weather Stations